sensor_id;sensor_type;location;lat;lon;timestamp;pressure;altitude;pressure_sealevel;temperature;humidity
73842;BME280;62184;52.006;5.924;2023-11-18T00:01:56;101603.81;;;12.82;56.42
73842;BME280;62184;52.006;5.924;2023-11-18T00:04:22;101601.97;;;12.85;56.60
73842;BME280;62184;52.006;5.924;2023-11-18T00:06:49;101593.88;;;12.87;56.25
73842;BME280;62184;52.006;5.924;2023-11-18T00:09:15;101584.09;;;12.84;56.27
73842;BME280;62184;52.006;5.924;2023-11-18T00:11:42;101591.22;;;12.85;56.43
73842;BME280;62184;52.006;5.924;2023-11-18T00:14:09;101596.63;;;12.84;56.63
73842;BME280;62184;52.006;5.924;2023-11-18T00:16:39;101597.53;;;12.83;56.12
73842;BME280;62184;52.006;5.924;2023-11-18T00:19:05;101601.22;;;12.79;56.38
73842;BME280;62184;52.006;5.924;2023-11-18T00:21:32;101592.25;;;12.80;56.21
73842;BME280;62184;52.006;5.924;2023-11-18T00:23:58;101592.25;;;12.80;56.42
73842;BME280;62184;52.006;5.924;2023-11-18T00:26:24;101591.28;;;12.82;56.25
73842;BME280;62184;52.006;5.924;2023-11-18T00:28:51;101588.66;;;12.81;56.42
73842;BME280;62184;52.006;5.924;2023-11-18T00:31:17;101596.66;;;12.82;56.63
73842;BME280;62184;52.006;5.924;2023-11-18T00:33:47;101595.72;;;12.85;56.21
73842;BME280;62184;52.006;5.924;2023-11-18T00:36:13;101590.34;;;12.85;56.38
73842;BME280;62184;52.006;5.924;2023-11-18T00:38:40;101580.53;;;12.84;56.32
73842;BME280;62184;52.006;5.924;2023-11-18T00:41:06;101579.63;;;12.85;56.61
73842;BME280;62184;52.006;5.924;2023-11-18T00:43:33;101577.84;;;12.84;56.55
73842;BME280;62184;52.006;5.924;2023-11-18T00:45:59;101577.06;;;12.80;56.59
73842;BME280;62184;52.006;5.924;2023-11-18T00:48:26;101572.59;;;12.81;56.57
73842;BME280;62184;52.006;5.924;2023-11-18T00:50:55;101575.19;;;12.82;56.44
73842;BME280;62184;52.006;5.924;2023-11-18T00:53:21;101574.41;;;12.79;56.21
73842;BME280;62184;52.006;5.924;2023-11-18T00:55:48;101579.88;;;12.73;56.25
73842;BME280;62184;52.006;5.924;2023-11-18T00:58:15;101580.94;;;12.65;56.37
73842;BME280;62184;52.006;5.924;2023-11-18T01:00:41;101574.75;;;12.63;56.21
73842;BME280;62184;52.006;5.924;2023-11-18T01:03:08;101581.03;;;12.61;56.07
73842;BME280;62184;52.006;5.924;2023-11-18T01:05:34;101589.13;;;12.58;56.10
73842;BME280;62184;52.006;5.924;2023-11-18T01:08:04;101586.59;;;12.52;56.10
73842;BME280;62184;52.006;5.924;2023-11-18T01:10:30;101595.53;;;12.52;56.40
73842;BME280;62184;52.006;5.924;2023-11-18T01:12:57;101607.97;;;12.55;56.21
73842;BME280;62184;52.006;5.924;2023-11-18T01:15:23;101605.25;;;12.56;56.27
73842;BME280;62184;52.006;5.924;2023-11-18T01:17:50;101591.03;;;12.54;56.55
73842;BME280;62184;52.006;5.924;2023-11-18T01:20:16;101607.03;;;12.56;56.45
73842;BME280;62184;52.006;5.924;2023-11-18T01:22:42;101604.34;;;12.56;56.44
73842;BME280;62184;52.006;5.924;2023-11-18T01:25:11;101599.84;;;12.58;56.27
73842;BME280;62184;52.006;5.924;2023-11-18T01:27:38;101608.78;;;12.58;56.52
73842;BME280;62184;52.006;5.924;2023-11-18T01:30:06;101605.25;;;12.56;56.40
73842;BME280;62184;52.006;5.924;2023-11-18T01:32:33;101607.94;;;12.56;56.51
73842;BME280;62184;52.006;5.924;2023-11-18T01:34:59;101620.44;;;12.56;56.45
73842;BME280;62184;52.006;5.924;2023-11-18T01:37:26;101615.06;;;12.56;56.50
73842;BME280;62184;52.006;5.924;2023-11-18T01:39:52;101615.06;;;12.57;56.56
73842;BME280;62184;52.006;5.924;2023-11-18T01:42:21;101607.84;;;12.61;56.85
73842;BME280;62184;52.006;5.924;2023-11-18T01:44:48;101599.78;;;12.62;56.81
73842;BME280;62184;52.006;5.924;2023-11-18T01:47:14;101603.25;;;12.66;56.89
73842;BME280;62184;52.006;5.924;2023-11-18T01:49:41;101613.91;;;12.71;56.66
73842;BME280;62184;52.006;5.924;2023-11-18T01:52:08;101614.66;;;12.76;56.88
73842;BME280;62184;52.006;5.924;2023-11-18T01:54:37;101605.75;;;12.75;56.80
73842;BME280;62184;52.006;5.924;2023-11-18T01:57:04;101600.41;;;12.74;56.85
73842;BME280;62184;52.006;5.924;2023-11-18T01:59:34;101601.28;;;12.76;56.70
73842;BME280;62184;52.006;5.924;2023-11-18T02:02:01;101597.66;;;12.78;56.83
73842;BME280;62184;52.006;5.924;2023-11-18T02:04:27;101594.06;;;12.79;56.60
73842;BME280;62184;52.006;5.924;2023-11-18T02:06:54;101585.00;;;12.83;56.91
73842;BME280;62184;52.006;5.924;2023-11-18T02:09:21;101586.81;;;12.83;56.59
73842;BME280;62184;52.006;5.924;2023-11-18T02:11:53;101587.88;;;12.76;56.73
73842;BME280;62184;52.006;5.924;2023-11-18T02:14:28;101589.81;;;12.69;56.90
73842;BME280;62184;52.006;5.924;2023-11-18T02:17:02;101581.78;;;12.67;56.98
73842;BME280;62184;52.006;5.924;2023-11-18T02:19:29;101588.09;;;12.65;56.98
73842;BME280;62184;52.006;5.924;2023-11-18T02:21:57;101592.56;;;12.64;57.10
73842;BME280;62184;52.006;5.924;2023-11-18T02:24:27;101594.47;;;12.59;57.34
73842;BME280;62184;52.006;5.924;2023-11-18T02:26:57;101588.22;;;12.59;57.42
73842;BME280;62184;52.006;5.924;2023-11-18T02:29:25;101591.78;;;12.59;57.38
73842;BME280;62184;52.006;5.924;2023-11-18T02:31:57;101598.00;;;12.61;57.25
73842;BME280;62184;52.006;5.924;2023-11-18T02:34:32;101592.72;;;12.57;57.55
73842;BME280;62184;52.006;5.924;2023-11-18T02:37:02;101591.81;;;12.58;57.23
73842;BME280;62184;52.006;5.924;2023-11-18T02:39:37;101598.16;;;12.55;57.12
73842;BME280;62184;52.006;5.924;2023-11-18T02:42:12;101591.97;;;12.50;57.27
73842;BME280;62184;52.006;5.924;2023-11-18T02:44:40;101592.06;;;12.47;57.85
73842;BME280;62184;52.006;5.924;2023-11-18T02:47:09;101594.66;;;12.50;57.48
73842;BME280;62184;52.006;5.924;2023-11-18T02:49:37;101586.66;;;12.49;57.26
73842;BME280;62184;52.006;5.924;2023-11-18T02:52:04;101584.84;;;12.49;57.25
73842;BME280;62184;52.006;5.924;2023-11-18T02:54:30;101580.38;;;12.50;57.15
73842;BME280;62184;52.006;5.924;2023-11-18T02:56:57;101579.59;;;12.46;57.58
73842;BME280;62184;52.006;5.924;2023-11-18T02:59:26;101576.94;;;12.45;57.57
73842;BME280;62184;52.006;5.924;2023-11-18T03:01:53;101566.19;;;12.46;57.69
73842;BME280;62184;52.006;5.924;2023-11-18T03:04:20;101569.59;;;12.54;57.54
73842;BME280;62184;52.006;5.924;2023-11-18T03:06:46;101566.00;;;12.55;57.50
73842;BME280;62184;52.006;5.924;2023-11-18T03:09:13;101555.22;;;12.57;57.46
73842;BME280;62184;52.006;5.924;2023-11-18T03:11:39;101557.94;;;12.55;57.15
73842;BME280;62184;52.006;5.924;2023-11-18T03:14:05;101567.78;;;12.55;57.47
73842;BME280;62184;52.006;5.924;2023-11-18T03:16:36;101562.31;;;12.59;57.55
73842;BME280;62184;52.006;5.924;2023-11-18T03:19:02;101560.47;;;12.63;57.24
73842;BME280;62184;52.006;5.924;2023-11-18T03:21:29;101557.78;;;12.63;57.57
73842;BME280;62184;52.006;5.924;2023-11-18T03:23:55;101556.00;;;12.62;57.51
73842;BME280;62184;52.006;5.924;2023-11-18T03:26:22;101559.66;;;12.58;57.29
73842;BME280;62184;52.006;5.924;2023-11-18T03:28:48;101568.69;;;12.54;57.26
73842;BME280;62184;52.006;5.924;2023-11-18T03:31:14;101562.44;;;12.53;57.34
73842;BME280;62184;52.006;5.924;2023-11-18T03:33:43;101573.19;;;12.53;57.52
73842;BME280;62184;52.006;5.924;2023-11-18T03:36:10;101573.19;;;12.53;57.52
73842;BME280;62184;52.006;5.924;2023-11-18T03:38:36;101576.75;;;12.54;57.54
73842;BME280;62184;52.006;5.924;2023-11-18T03:41:04;101574.94;;;12.54;57.20
73842;BME280;62184;52.006;5.924;2023-11-18T03:43:30;101565.16;;;12.52;57.72
73842;BME280;62184;52.006;5.924;2023-11-18T03:45:56;101565.09;;;12.55;57.47
73842;BME280;62184;52.006;5.924;2023-11-18T03:48:23;101569.59;;;12.54;57.61
73842;BME280;62184;52.006;5.924;2023-11-18T03:50:53;101562.44;;;12.53;57.59
73842;BME280;62184;52.006;5.924;2023-11-18T03:53:19;101558.88;;;12.53;57.43
73842;BME280;62184;52.006;5.924;2023-11-18T03:55:46;101555.28;;;12.55;57.89
73842;BME280;62184;52.006;5.924;2023-11-18T03:58:12;101545.47;;;12.54;57.80
73842;BME280;62184;52.006;5.924;2023-11-18T04:00:38;101537.28;;;12.60;57.71
73842;BME280;62184;52.006;5.924;2023-11-18T04:03:05;101539.06;;;12.61;57.51
73842;BME280;62184;52.006;5.924;2023-11-18T04:05:31;101537.22;;;12.63;57.68
73842;BME280;62184;52.006;5.924;2023-11-18T04:08:00;101526.59;;;12.59;57.53
73842;BME280;62184;52.006;5.924;2023-11-18T04:10:27;101523.97;;;12.56;58.04
73842;BME280;62184;52.006;5.924;2023-11-18T04:12:54;101512.16;;;12.64;57.70
73842;BME280;62184;52.006;5.924;2023-11-18T04:15:21;101506.69;;;12.71;57.56
73842;BME280;62184;52.006;5.924;2023-11-18T04:17:47;101506.53;;;12.77;57.65
73842;BME280;62184;52.006;5.924;2023-11-18T04:20:13;101502.09;;;12.76;57.32
73842;BME280;62184;52.006;5.924;2023-11-18T04:22:40;101490.59;;;12.71;57.01
73842;BME280;62184;52.006;5.924;2023-11-18T04:25:12;101489.75;;;12.68;57.57
73842;BME280;62184;52.006;5.924;2023-11-18T04:27:39;101485.31;;;12.67;57.54
73842;BME280;62184;52.006;5.924;2023-11-18T04:30:07;101487.06;;;12.68;57.60
73842;BME280;62184;52.006;5.924;2023-11-18T04:32:34;101489.69;;;12.72;57.57
73842;BME280;62184;52.006;5.924;2023-11-18T04:35:01;101480.94;;;12.63;57.99
73842;BME280;62184;52.006;5.924;2023-11-18T04:37:27;101475.50;;;12.66;57.93
73842;BME280;62184;52.006;5.924;2023-11-18T04:39:53;101476.31;;;12.70;57.73
73842;BME280;62184;52.006;5.924;2023-11-18T04:42:22;101459.50;;;12.63;57.62
73842;BME280;62184;52.006;5.924;2023-11-18T04:44:49;101460.47;;;12.59;58.06
73842;BME280;62184;52.006;5.924;2023-11-18T04:47:15;101456.91;;;12.59;57.90
73842;BME280;62184;52.006;5.924;2023-11-18T04:49:42;101440.84;;;12.59;57.93
73842;BME280;62184;52.006;5.924;2023-11-18T04:52:08;101439.09;;;12.56;57.89
73842;BME280;62184;52.006;5.924;2023-11-18T04:54:35;101449.00;;;12.54;58.14
73842;BME280;62184;52.006;5.924;2023-11-18T04:57:02;101449.78;;;12.58;58.51
73842;BME280;62184;52.006;5.924;2023-11-18T04:59:31;101429.94;;;12.66;58.34
73842;BME280;62184;52.006;5.924;2023-11-18T05:01:57;101453.06;;;12.71;58.03
73842;BME280;62184;52.006;5.924;2023-11-18T05:04:24;101459.13;;;12.79;58.32
73842;BME280;62184;52.006;5.924;2023-11-18T05:06:50;101452.69;;;12.86;58.05
73842;BME280;62184;52.006;5.924;2023-11-18T05:09:16;101445.53;;;12.86;58.04
73842;BME280;62184;52.006;5.924;2023-11-18T05:11:43;101451.00;;;12.82;57.91
73842;BME280;62184;52.006;5.924;2023-11-18T05:14:09;101459.09;;;12.80;58.21
73842;BME280;62184;52.006;5.924;2023-11-18T05:16:38;101442.94;;;12.83;58.25
73842;BME280;62184;52.006;5.924;2023-11-18T05:19:06;101445.50;;;12.88;58.12
73842;BME280;62184;52.006;5.924;2023-11-18T05:21:32;101437.41;;;12.89;57.97
73842;BME280;62184;52.006;5.924;2023-11-18T05:23:59;101438.28;;;12.90;58.08
73842;BME280;62184;52.006;5.924;2023-11-18T05:26:25;101452.66;;;12.87;57.59
73842;BME280;62184;52.006;5.924;2023-11-18T05:28:51;101450.94;;;12.85;57.72
73842;BME280;62184;52.006;5.924;2023-11-18T05:31:18;101462.59;;;12.82;57.98
73842;BME280;62184;52.006;5.924;2023-11-18T05:33:47;101445.63;;;12.82;57.77
73842;BME280;62184;52.006;5.924;2023-11-18T05:36:13;101432.22;;;12.82;58.06
73842;BME280;62184;52.006;5.924;2023-11-18T05:38:40;101428.66;;;12.81;58.18
73842;BME280;62184;52.006;5.924;2023-11-18T05:41:06;101424.97;;;12.87;58.05
73842;BME280;62184;52.006;5.924;2023-11-18T05:43:33;101417.84;;;12.86;57.99
73842;BME280;62184;52.006;5.924;2023-11-18T05:45:59;101419.66;;;12.85;57.95
73842;BME280;62184;52.006;5.924;2023-11-18T05:48:26;101423.97;;;12.91;58.13
73842;BME280;62184;52.006;5.924;2023-11-18T05:50:55;101412.31;;;12.92;58.01
73842;BME280;62184;52.006;5.924;2023-11-18T05:53:21;101411.47;;;12.90;58.03
73842;BME280;62184;52.006;5.924;2023-11-18T05:55:48;101410.69;;;12.86;57.72
73842;BME280;62184;52.006;5.924;2023-11-18T05:58:14;101404.44;;;12.86;57.60
73842;BME280;62184;52.006;5.924;2023-11-18T06:00:40;101403.69;;;12.81;57.79
73842;BME280;62184;52.006;5.924;2023-11-18T06:03:07;101405.72;;;12.71;57.66
73842;BME280;62184;52.006;5.924;2023-11-18T06:05:33;101402.25;;;12.66;57.84
73842;BME280;62184;52.006;5.924;2023-11-18T06:08:02;101411.16;;;12.66;58.00
73842;BME280;62184;52.006;5.924;2023-11-18T06:10:29;101412.94;;;12.67;57.95
73842;BME280;62184;52.006;5.924;2023-11-18T06:12:55;101408.28;;;12.74;58.11
73842;BME280;62184;52.006;5.924;2023-11-18T06:15:22;101405.66;;;12.73;57.97
73842;BME280;62184;52.006;5.924;2023-11-18T06:17:48;101396.00;;;12.65;58.09
73842;BME280;62184;52.006;5.924;2023-11-18T06:20:15;101388.09;;;12.61;57.97
73842;BME280;62184;52.006;5.924;2023-11-18T06:22:41;101394.50;;;12.55;57.54
73842;BME280;62184;52.006;5.924;2023-11-18T06:25:10;101394.59;;;12.51;58.15
73842;BME280;62184;52.006;5.924;2023-11-18T06:27:37;101390.13;;;12.50;58.22
73842;BME280;62184;52.006;5.924;2023-11-18T06:30:04;101394.59;;;12.51;58.18
73842;BME280;62184;52.006;5.924;2023-11-18T06:32:31;101393.53;;;12.56;58.19
73842;BME280;62184;52.006;5.924;2023-11-18T06:34:58;101400.59;;;12.60;58.29
73842;BME280;62184;52.006;5.924;2023-11-18T06:37:24;101409.56;;;12.59;57.92
73842;BME280;62184;52.006;5.924;2023-11-18T06:39:50;101416.75;;;12.57;58.08
73842;BME280;62184;52.006;5.924;2023-11-18T06:42:19;101403.25;;;12.62;58.24
73842;BME280;62184;52.006;5.924;2023-11-18T06:44:46;101400.22;;;12.76;57.96
73842;BME280;62184;52.006;5.924;2023-11-18T06:47:12;101402.03;;;12.75;57.55
73842;BME280;62184;52.006;5.924;2023-11-18T06:49:38;101410.19;;;12.71;57.58
73842;BME280;62184;52.006;5.924;2023-11-18T06:52:05;101404.97;;;12.64;57.59
73842;BME280;62184;52.006;5.924;2023-11-18T06:54:31;101406.69;;;12.67;57.85
73842;BME280;62184;52.006;5.924;2023-11-18T06:56:58;101402.25;;;12.66;57.34
73842;BME280;62184;52.006;5.924;2023-11-18T06:59:27;101403.44;;;12.54;57.91
73842;BME280;62184;52.006;5.924;2023-11-18T07:01:53;101398.97;;;12.55;57.88
73842;BME280;62184;52.006;5.924;2023-11-18T07:04:20;101400.78;;;12.53;57.83
73842;BME280;62184;52.006;5.924;2023-11-18T07:06:46;101407.97;;;12.51;58.17
73842;BME280;62184;52.006;5.924;2023-11-18T07:09:12;101412.41;;;12.53;57.80
73842;BME280;62184;52.006;5.924;2023-11-18T07:11:39;101402.59;;;12.52;57.83
73842;BME280;62184;52.006;5.924;2023-11-18T07:14:05;101391.91;;;12.51;58.13
73842;BME280;62184;52.006;5.924;2023-11-18T07:16:35;101395.50;;;12.50;58.31
73842;BME280;62184;52.006;5.924;2023-11-18T07:19:01;101390.13;;;12.50;58.18
73842;BME280;62184;52.006;5.924;2023-11-18T07:21:28;101393.69;;;12.50;58.23
73842;BME280;62184;52.006;5.924;2023-11-18T07:23:54;101391.81;;;12.55;58.14
73842;BME280;62184;52.006;5.924;2023-11-18T07:26:21;101387.28;;;12.57;57.85
73842;BME280;62184;52.006;5.924;2023-11-18T07:28:47;101385.59;;;12.53;57.55
73842;BME280;62184;52.006;5.924;2023-11-18T07:31:14;101394.44;;;12.57;57.92
73842;BME280;62184;52.006;5.924;2023-11-18T07:33:43;101397.09;;;12.57;58.11
73842;BME280;62184;52.006;5.924;2023-11-18T07:36:10;101401.53;;;12.59;58.04
73842;BME280;62184;52.006;5.924;2023-11-18T07:38:36;101402.34;;;12.63;58.13
73842;BME280;62184;52.006;5.924;2023-11-18T07:41:03;101395.22;;;12.62;57.45
73842;BME280;62184;52.006;5.924;2023-11-18T07:43:30;101397.00;;;12.61;57.67
73842;BME280;62184;52.006;5.924;2023-11-18T07:45:56;101396.97;;;12.63;57.74
73842;BME280;62184;52.006;5.924;2023-11-18T07:48:23;101404.03;;;12.65;57.75
73842;BME280;62184;52.006;5.924;2023-11-18T07:50:52;101412.09;;;12.65;57.96
73842;BME280;62184;52.006;5.924;2023-11-18T07:53:18;101412.09;;;12.65;57.60
73842;BME280;62184;52.006;5.924;2023-11-18T07:55:45;101400.44;;;12.66;57.87
73842;BME280;62184;52.006;5.924;2023-11-18T07:58:11;101402.25;;;12.66;57.32
73842;BME280;62184;52.006;5.924;2023-11-18T08:00:38;101405.13;;;12.58;57.73
73842;BME280;62184;52.006;5.924;2023-11-18T08:03:05;101404.16;;;12.61;57.75
73842;BME280;62184;52.006;5.924;2023-11-18T08:05:31;101393.44;;;12.61;58.02
73842;BME280;62184;52.006;5.924;2023-11-18T08:08:00;101394.34;;;12.61;57.79
73842;BME280;62184;52.006;5.924;2023-11-18T08:10:27;101397.94;;;12.60;57.85
73842;BME280;62184;52.006;5.924;2023-11-18T08:12:53;101403.28;;;12.60;57.62
73842;BME280;62184;52.006;5.924;2023-11-18T08:15:20;101398.03;;;12.56;57.68
73842;BME280;62184;52.006;5.924;2023-11-18T08:17:46;101394.56;;;12.52;57.80
73842;BME280;62184;52.006;5.924;2023-11-18T08:20:13;101380.41;;;12.47;57.88
73842;BME280;62184;52.006;5.924;2023-11-18T08:22:40;101372.41;;;12.46;58.08
73842;BME280;62184;52.006;5.924;2023-11-18T08:25:09;101374.16;;;12.47;57.83
73842;BME280;62184;52.006;5.924;2023-11-18T08:27:36;101367.81;;;12.49;57.75
73842;BME280;62184;52.006;5.924;2023-11-18T08:30:02;101365.13;;;12.49;57.93
73842;BME280;62184;52.006;5.924;2023-11-18T08:32:29;101355.44;;;12.45;58.05
73842;BME280;62184;52.006;5.924;2023-11-18T08:34:55;101358.13;;;12.45;57.90
73842;BME280;62184;52.006;5.924;2023-11-18T08:37:22;101346.25;;;12.55;58.14
73842;BME280;62184;52.006;5.924;2023-11-18T08:39:48;101342.56;;;12.59;57.82
73842;BME280;62184;52.006;5.924;2023-11-18T08:42:17;101337.09;;;12.64;57.51
73842;BME280;62184;52.006;5.924;2023-11-18T08:44:44;101338.75;;;12.70;57.42
73842;BME280;62184;52.006;5.924;2023-11-18T08:47:10;101337.59;;;12.80;57.61
73842;BME280;62184;52.006;5.924;2023-11-18T08:49:36;101331.16;;;12.87;57.51
73842;BME280;62184;52.006;5.924;2023-11-18T08:52:04;101322.00;;;12.94;57.71
73842;BME280;62184;52.006;5.924;2023-11-18T08:54:31;101322.75;;;12.99;57.16
73842;BME280;62184;52.006;5.924;2023-11-18T08:56:57;101310.13;;;13.04;57.11
73842;BME280;62184;52.006;5.924;2023-11-18T08:59:26;101324.22;;;13.11;57.33
73842;BME280;62184;52.006;5.924;2023-11-18T09:01:53;101329.34;;;13.20;57.39
73842;BME280;62184;52.006;5.924;2023-11-18T09:04:20;101329.97;;;13.29;57.38
73842;BME280;62184;52.006;5.924;2023-11-18T09:06:47;101321.88;;;13.31;57.07
73842;BME280;62184;52.006;5.924;2023-11-18T09:09:13;101325.38;;;13.33;57.01
73842;BME280;62184;52.006;5.924;2023-11-18T09:11:40;101317.38;;;13.31;57.41
73842;BME280;62184;52.006;5.924;2023-11-18T09:14:06;101311.16;;;13.31;56.86
73842;BME280;62184;52.006;5.924;2023-11-18T09:16:36;101306.53;;;13.36;57.09
73842;BME280;62184;52.006;5.924;2023-11-18T09:19:03;101303.78;;;13.39;57.63
73842;BME280;62184;52.006;5.924;2023-11-18T09:21:29;101303.47;;;13.50;57.17
73842;BME280;62184;52.006;5.924;2023-11-18T09:23:55;101295.19;;;13.57;56.98
73842;BME280;62184;52.006;5.924;2023-11-18T09:26:22;101287.84;;;13.64;57.09
73842;BME280;62184;52.006;5.924;2023-11-18T09:28:48;101292.81;;;13.76;57.31
73842;BME280;62184;52.006;5.924;2023-11-18T09:31:15;101276.44;;;13.85;57.17
73842;BME280;62184;52.006;5.924;2023-11-18T09:33:44;101274.63;;;13.86;57.14
73842;BME280;62184;52.006;5.924;2023-11-18T09:36:11;101260.41;;;13.82;56.94
73842;BME280;62184;52.006;5.924;2023-11-18T09:38:39;101257.69;;;13.84;57.24
73842;BME280;62184;52.006;5.924;2023-11-18T09:41:08;101268.22;;;13.90;57.14
73842;BME280;62184;52.006;5.924;2023-11-18T09:43:37;101261.88;;;13.92;57.25
73842;BME280;62184;52.006;5.924;2023-11-18T09:46:06;101262.72;;;13.94;57.00
73842;BME280;62184;52.006;5.924;2023-11-18T09:48:32;101261.63;;;14.00;57.11
73842;BME280;62184;52.006;5.924;2023-11-18T09:51:02;101252.59;;;14.02;56.91
73842;BME280;62184;52.006;5.924;2023-11-18T09:53:31;101242.03;;;13.98;56.54
73842;BME280;62184;52.006;5.924;2023-11-18T09:56:03;101237.63;;;13.95;56.50
73842;BME280;62184;52.006;5.924;2023-11-18T09:58:40;101239.22;;;14.01;57.24
73842;BME280;62184;52.006;5.924;2023-11-18T10:01:13;101222.22;;;14.00;56.61
73842;BME280;62184;52.006;5.924;2023-11-18T10:03:41;101216.09;;;13.97;56.95
73842;BME280;62184;52.006;5.924;2023-11-18T10:06:12;101202.53;;;14.00;56.79
73842;BME280;62184;52.006;5.924;2023-11-18T10:08:39;101198.94;;;14.01;56.59
73842;BME280;62184;52.006;5.924;2023-11-18T10:11:06;101191.09;;;13.95;56.34
73842;BME280;62184;52.006;5.924;2023-11-18T10:13:32;101185.84;;;13.90;56.75
73842;BME280;62184;52.006;5.924;2023-11-18T10:15:59;101192.06;;;13.92;57.08
73842;BME280;62184;52.006;5.924;2023-11-18T10:18:27;101192.06;;;13.92;56.18
73842;BME280;62184;52.006;5.924;2023-11-18T10:20:53;101185.94;;;13.89;56.71
73842;BME280;62184;52.006;5.924;2023-11-18T10:23:22;101190.25;;;13.93;57.01
73842;BME280;62184;52.006;5.924;2023-11-18T10:25:50;101198.97;;;13.99;56.86
73842;BME280;62184;52.006;5.924;2023-11-18T10:28:21;101207.97;;;13.98;57.38
73842;BME280;62184;52.006;5.924;2023-11-18T10:30:49;101195.38;;;14.00;56.99
73842;BME280;62184;52.006;5.924;2023-11-18T10:33:17;101199.97;;;13.97;56.08
73842;BME280;62184;52.006;5.924;2023-11-18T10:35:50;101202.03;;;13.89;56.63
73842;BME280;62184;52.006;5.924;2023-11-18T10:38:17;101199.41;;;13.87;56.86
73842;BME280;62184;52.006;5.924;2023-11-18T10:40:47;101199.59;;;13.81;56.56
73842;BME280;62184;52.006;5.924;2023-11-18T10:43:13;101191.94;;;13.69;56.51
73842;BME280;62184;52.006;5.924;2023-11-18T10:45:40;101188.63;;;13.61;56.92
73842;BME280;62184;52.006;5.924;2023-11-18T10:48:06;101189.63;;;13.57;57.08
73842;BME280;62184;52.006;5.924;2023-11-18T10:50:33;101182.53;;;13.56;57.47
73842;BME280;62184;52.006;5.924;2023-11-18T10:53:00;101184.38;;;13.54;57.62
73842;BME280;62184;52.006;5.924;2023-11-18T10:55:34;101183.44;;;13.55;57.35
73842;BME280;62184;52.006;5.924;2023-11-18T10:58:04;101174.59;;;13.51;57.65
73842;BME280;62184;52.006;5.924;2023-11-18T11:00:45;101171.16;;;13.48;57.63
73842;BME280;62184;52.006;5.924;2023-11-18T11:03:15;101171.00;;;13.52;57.55
73842;BME280;62184;52.006;5.924;2023-11-18T11:05:42;101161.91;;;13.56;57.90
73842;BME280;62184;52.006;5.924;2023-11-18T11:08:08;101160.91;;;13.60;57.60
73842;BME280;62184;52.006;5.924;2023-11-18T11:10:37;101157.25;;;13.63;57.35
73842;BME280;62184;52.006;5.924;2023-11-18T11:13:07;101164.47;;;13.61;57.58
73842;BME280;62184;52.006;5.924;2023-11-18T11:15:42;101157.53;;;13.54;57.63
73842;BME280;62184;52.006;5.924;2023-11-18T11:18:12;101147.72;;;13.53;57.74
73842;BME280;62184;52.006;5.924;2023-11-18T11:20:42;101139.00;;;13.46;57.37
73842;BME280;62184;52.006;5.924;2023-11-18T11:23:21;101129.22;;;13.43;57.77
73842;BME280;62184;52.006;5.924;2023-11-18T11:26:01;101115.97;;;13.39;57.95
73842;BME280;62184;52.006;5.924;2023-11-18T11:28:40;101110.53;;;13.40;58.20
73842;BME280;62184;52.006;5.924;2023-11-18T11:31:19;101113.22;;;13.40;58.18
73842;BME280;62184;52.006;5.924;2023-11-18T11:33:55;101108.94;;;13.33;58.11
73842;BME280;62184;52.006;5.924;2023-11-18T11:36:30;101107.31;;;13.29;58.16
73842;BME280;62184;52.006;5.924;2023-11-18T11:39:03;101102.81;;;13.30;58.42
73842;BME280;62184;52.006;5.924;2023-11-18T11:41:30;101089.59;;;13.24;58.48
73842;BME280;62184;52.006;5.924;2023-11-18T11:44:01;101075.28;;;13.23;58.49
73842;BME280;62184;52.006;5.924;2023-11-18T11:46:28;101061.19;;;13.17;58.20
73842;BME280;62184;52.006;5.924;2023-11-18T11:48:55;101043.31;;;13.17;58.92
73842;BME280;62184;52.006;5.924;2023-11-18T11:51:24;101008.34;;;13.20;58.77
73842;BME280;62184;52.006;5.924;2023-11-18T11:54:01;101003.81;;;13.22;58.82
73842;BME280;62184;52.006;5.924;2023-11-18T11:56:38;101001.94;;;13.24;58.88
73842;BME280;62184;52.006;5.924;2023-11-18T11:59:08;100996.56;;;13.24;59.01
73842;BME280;62184;52.006;5.924;2023-11-18T12:01:36;101001.03;;;13.25;58.97
73842;BME280;62184;52.006;5.924;2023-11-18T12:04:03;100998.94;;;13.33;59.22
73842;BME280;62184;52.006;5.924;2023-11-18T12:06:31;100997.06;;;13.37;59.00
73842;BME280;62184;52.006;5.924;2023-11-18T12:08:58;100989.88;;;13.39;59.29
73842;BME280;62184;52.006;5.924;2023-11-18T12:11:25;100993.31;;;13.42;58.97
73842;BME280;62184;52.006;5.924;2023-11-18T12:14:02;100993.19;;;13.47;59.43
73842;BME280;62184;52.006;5.924;2023-11-18T12:19:29;100966.16;;;13.52;58.74
73842;BME280;62184;52.006;5.924;2023-11-18T12:21:56;100964.38;;;13.52;58.73
73842;BME280;62184;52.006;5.924;2023-11-18T12:24:22;100951.81;;;13.53;59.07
73842;BME280;62184;52.006;5.924;2023-11-18T12:26:49;100957.19;;;13.53;58.99
73842;BME280;62184;52.006;5.924;2023-11-18T12:29:31;100955.25;;;13.56;58.97
73842;BME280;62184;52.006;5.924;2023-11-18T12:31:58;100957.94;;;13.56;58.82
73842;BME280;62184;52.006;5.924;2023-11-18T12:34:50;100945.41;;;13.57;59.35
73842;BME280;62184;52.006;5.924;2023-11-18T12:37:56;100927.13;;;13.68;59.31
73842;BME280;62184;52.006;5.924;2023-11-18T12:40:51;100904.91;;;13.64;59.18
73842;BME280;62184;52.006;5.924;2023-11-18T12:43:30;100898.50;;;13.67;58.95
73842;BME280;62184;52.006;5.924;2023-11-18T12:46:47;100884.22;;;13.66;58.89
73842;BME280;62184;52.006;5.924;2023-11-18T12:49:15;100886.09;;;13.64;59.15
73842;BME280;62184;52.006;5.924;2023-11-18T12:51:45;100873.63;;;13.63;59.08
73842;BME280;62184;52.006;5.924;2023-11-18T12:54:12;100862.88;;;13.63;59.27
73842;BME280;62184;52.006;5.924;2023-11-18T12:56:39;100851.25;;;13.63;58.83
73842;BME280;62184;52.006;5.924;2023-11-18T12:59:05;100828.00;;;13.63;59.17